sensor_id;sensor_type;location;lat;lon;timestamp;pressure;altitude;pressure_sealevel;temperature;humidity
29839;BME280;18669;53.356;-1.464;2022-10-16T00:01:10;98954.84;;;11.18;100.00
29839;BME280;18669;53.356;-1.464;2022-10-16T00:03:37;98965.53;;;11.15;100.00
29839;BME280;18669;53.356;-1.464;2022-10-16T00:06:04;98965.38;;;11.18;100.00
29839;BME280;18669;53.356;-1.464;2022-10-16T00:08:30;98949.97;;;11.11;100.00
29839;BME280;18669;53.356;-1.464;2022-10-16T00:11:01;98952.81;;;11.06;100.00
29839;BME280;18669;53.356;-1.464;2022-10-16T00:13:27;98951.50;;;11.15;100.00
29839;BME280;18669;53.356;-1.464;2022-10-16T00:15:54;98961.88;;;11.18;100.00
29839;BME280;18669;53.356;-1.464;2022-10-16T00:18:20;98946.94;;;11.18;100.00
29839;BME280;18669;53.356;-1.464;2022-10-16T00:20:46;98961.03;;;11.17;100.00
29839;BME280;18669;53.356;-1.464;2022-10-16T00:23:12;98947.72;;;11.21;100.00
29839;BME280;18669;53.356;-1.464;2022-10-16T00:25:38;98932.75;;;11.21;100.00
29839;BME280;18669;53.356;-1.464;2022-10-16T00:28:04;98948.56;;;11.21;100.00
29839;BME280;18669;53.356;-1.464;2022-10-16T00:30:30;98960.78;;;11.22;100.00
29839;BME280;18669;53.356;-1.464;2022-10-16T00:32:56;98958.88;;;11.26;100.00
29839;BME280;18669;53.356;-1.464;2022-10-16T00:35:22;98962.19;;;11.29;100.00
29839;BME280;18669;53.356;-1.464;2022-10-16T00:37:47;98958.31;;;11.37;100.00
29839;BME280;18669;53.356;-1.464;2022-10-16T00:40:13;98970.88;;;11.31;100.00
29839;BME280;18669;53.356;-1.464;2022-10-16T00:42:39;98956.69;;;11.34;100.00
29839;BME280;18669;53.356;-1.464;2022-10-16T00:45:08;98968.09;;;11.34;100.00
29839;BME280;18669;53.356;-1.464;2022-10-16T00:47:35;98965.75;;;11.28;100.00
29839;BME280;18669;53.356;-1.464;2022-10-16T00:52:47;98960.44;;;11.30;100.00
29839;BME280;18669;53.356;-1.464;2022-10-16T00:55:14;98965.06;;;11.25;100.00
29839;BME280;18669;53.356;-1.464;2022-10-16T00:57:40;98973.28;;;11.18;100.00
29839;BME280;18669;53.356;-1.464;2022-10-16T01:00:08;98986.19;;;11.23;100.00
29839;BME280;18669;53.356;-1.464;2022-10-16T01:02:34;98965.22;;;11.22;100.00
29839;BME280;18669;53.356;-1.464;2022-10-16T01:05:00;98979.53;;;11.16;100.00
29839;BME280;18669;53.356;-1.464;2022-10-16T01:07:30;98981.31;;;11.15;100.00
29839;BME280;18669;53.356;-1.464;2022-10-16T01:10:15;98976.88;;;11.16;100.00
29839;BME280;18669;53.356;-1.464;2022-10-16T01:15:25;98996.31;;;11.13;100.00
29839;BME280;18669;53.356;-1.464;2022-10-16T01:20:29;98996.66;;;11.25;100.00
29839;BME280;18669;53.356;-1.464;2022-10-16T01:23:04;98993.25;;;11.23;100.00
29839;BME280;18669;53.356;-1.464;2022-10-16T01:27:58;99022.59;;;11.32;100.00
29839;BME280;18669;53.356;-1.464;2022-10-16T01:30:29;99002.31;;;11.34;100.00
29839;BME280;18669;53.356;-1.464;2022-10-16T01:32:57;99013.78;;;11.33;100.00
29839;BME280;18669;53.356;-1.464;2022-10-16T01:35:38;99005.19;;;11.30;100.00
29839;BME280;18669;53.356;-1.464;2022-10-16T01:40:37;99017.72;;;11.25;100.00
29839;BME280;18669;53.356;-1.464;2022-10-16T01:43:06;99027.31;;;11.26;100.00
29839;BME280;18669;53.356;-1.464;2022-10-16T01:45:34;99034.97;;;11.30;100.00
29839;BME280;18669;53.356;-1.464;2022-10-16T01:48:02;99029.47;;;11.35;100.00
29839;BME280;18669;53.356;-1.464;2022-10-16T01:50:31;99030.81;;;11.44;100.00
29839;BME280;18669;53.356;-1.464;2022-10-16T01:52:58;99039.56;;;11.44;100.00
29839;BME280;18669;53.356;-1.464;2022-10-16T01:55:27;99047.19;;;11.14;100.00
29839;BME280;18669;53.356;-1.464;2022-10-16T01:57:55;99043.38;;;10.83;100.00
29839;BME280;18669;53.356;-1.464;2022-10-16T02:00:22;99049.38;;;10.67;100.00
29839;BME280;18669;53.356;-1.464;2022-10-16T02:02:49;99050.66;;;10.58;100.00
29839;BME280;18669;53.356;-1.464;2022-10-16T02:05:21;99054.78;;;10.45;100.00
29839;BME280;18669;53.356;-1.464;2022-10-16T02:07:50;99059.31;;;10.41;100.00
29839;BME280;18669;53.356;-1.464;2022-10-16T02:10:16;99059.56;;;10.35;100.00
29839;BME280;18669;53.356;-1.464;2022-10-16T02:12:47;99059.56;;;10.35;100.00
29839;BME280;18669;53.356;-1.464;2022-10-16T02:15:14;99066.53;;;10.36;100.00
29839;BME280;18669;53.356;-1.464;2022-10-16T02:17:40;99075.25;;;10.37;100.00
29839;BME280;18669;53.356;-1.464;2022-10-16T02:20:07;99080.50;;;10.37;100.00
29839;BME280;18669;53.356;-1.464;2022-10-16T02:25:02;99088.03;;;10.46;100.00
29839;BME280;18669;53.356;-1.464;2022-10-16T02:30:09;99100.63;;;10.58;100.00
29839;BME280;18669;53.356;-1.464;2022-10-16T02:32:38;99100.63;;;10.58;100.00
29839;BME280;18669;53.356;-1.464;2022-10-16T02:35:05;99116.41;;;10.58;100.00
29839;BME280;18669;53.356;-1.464;2022-10-16T02:37:31;99113.47;;;10.65;100.00
29839;BME280;18669;53.356;-1.464;2022-10-16T02:39:59;99117.69;;;10.69;100.00
29839;BME280;18669;53.356;-1.464;2022-10-16T02:42:29;99125.56;;;10.69;100.00
29839;BME280;18669;53.356;-1.464;2022-10-16T02:44:58;99128.34;;;10.66;100.00
29839;BME280;18669;53.356;-1.464;2022-10-16T02:47:25;99139.78;;;10.65;100.00
29839;BME280;18669;53.356;-1.464;2022-10-16T02:49:51;99144.59;;;10.76;100.00
29839;BME280;18669;53.356;-1.464;2022-10-16T02:52:16;99140.94;;;10.78;100.00
29839;BME280;18669;53.356;-1.464;2022-10-16T02:54:43;99139.53;;;10.90;100.00
29839;BME280;18669;53.356;-1.464;2022-10-16T02:57:08;99144.59;;;10.95;100.00
29839;BME280;18669;53.356;-1.464;2022-10-16T02:59:34;99140.88;;;10.99;100.00
29839;BME280;18669;53.356;-1.464;2022-10-16T03:02:00;99152.78;;;11.08;100.00
29839;BME280;18669;53.356;-1.464;2022-10-16T03:04:26;99159.75;;;11.09;100.00
29839;BME280;18669;53.356;-1.464;2022-10-16T03:06:52;99160.66;;;11.08;100.00
29839;BME280;18669;53.356;-1.464;2022-10-16T03:09:18;99164.28;;;11.05;100.00
29839;BME280;18669;53.356;-1.464;2022-10-16T03:11:43;99177.53;;;11.03;100.00
29839;BME280;18669;53.356;-1.464;2022-10-16T03:14:09;99183.75;;;11.01;100.00
29839;BME280;18669;53.356;-1.464;2022-10-16T03:16:35;99187.31;;;11.00;100.00
29839;BME280;18669;53.356;-1.464;2022-10-16T03:19:01;99197.97;;;10.97;100.00
29839;BME280;18669;53.356;-1.464;2022-10-16T03:21:27;99200.34;;;11.03;100.00
29839;BME280;18669;53.356;-1.464;2022-10-16T03:23:53;99198.75;;;10.99;100.00
29839;BME280;18669;53.356;-1.464;2022-10-16T03:26:19;99200.59;;;10.97;100.00
29839;BME280;18669;53.356;-1.464;2022-10-16T03:28:45;99210.22;;;10.98;100.00
29839;BME280;18669;53.356;-1.464;2022-10-16T03:31:11;99209.28;;;10.99;100.00
29839;BME280;18669;53.356;-1.464;2022-10-16T03:33:37;99221.81;;;10.94;100.00
29839;BME280;18669;53.356;-1.464;2022-10-16T03:36:03;99217.75;;;10.86;100.00
29839;BME280;18669;53.356;-1.464;2022-10-16T03:38:29;99232.88;;;10.81;100.00
29839;BME280;18669;53.356;-1.464;2022-10-16T03:40:55;99238.28;;;10.78;100.00
29839;BME280;18669;53.356;-1.464;2022-10-16T03:43:21;99247.09;;;10.77;100.00
29839;BME280;18669;53.356;-1.464;2022-10-16T03:45:47;99255.13;;;10.74;100.00
29839;BME280;18669;53.356;-1.464;2022-10-16T03:48:12;99265.63;;;10.74;100.00
29839;BME280;18669;53.356;-1.464;2022-10-16T03:50:38;99264.06;;;10.70;100.00
29839;BME280;18669;53.356;-1.464;2022-10-16T03:53:04;99278.25;;;10.66;100.00
29839;BME280;18669;53.356;-1.464;2022-10-16T03:55:30;99276.53;;;10.65;100.00
29839;BME280;18669;53.356;-1.464;2022-10-16T03:57:56;99294.25;;;10.61;100.00
29839;BME280;18669;53.356;-1.464;2022-10-16T04:00:22;99301.25;;;10.60;100.00
29839;BME280;18669;53.356;-1.464;2022-10-16T04:02:48;99308.22;;;10.62;100.00
29839;BME280;18669;53.356;-1.464;2022-10-16T04:05:14;99318.84;;;10.60;100.00
29839;BME280;18669;53.356;-1.464;2022-10-16T04:07:40;99317.78;;;10.64;100.00
29839;BME280;18669;53.356;-1.464;2022-10-16T04:10:06;99326.72;;;10.60;100.00
29839;BME280;18669;53.356;-1.464;2022-10-16T04:12:31;99337.25;;;10.60;100.00
29839;BME280;18669;53.356;-1.464;2022-10-16T04:14:58;99343.34;;;10.60;100.00
29839;BME280;18669;53.356;-1.464;2022-10-16T04:17:23;99344.28;;;10.59;100.00
29839;BME280;18669;53.356;-1.464;2022-10-16T04:19:49;99352.31;;;10.56;100.00
29839;BME280;18669;53.356;-1.464;2022-10-16T04:22:15;99361.28;;;10.51;100.00
29839;BME280;18669;53.356;-1.464;2022-10-16T04:24:41;99366.66;;;10.48;100.00
29839;BME280;18669;53.356;-1.464;2022-10-16T04:27:07;99374.81;;;10.41;100.00
29839;BME280;18669;53.356;-1.464;2022-10-16T04:29:32;99388.97;;;10.37;100.00
29839;BME280;18669;53.356;-1.464;2022-10-16T04:31:59;99393.38;;;10.37;100.00
29839;BME280;18669;53.356;-1.464;2022-10-16T04:34:25;99395.19;;;10.35;100.00
29839;BME280;18669;53.356;-1.464;2022-10-16T04:36:50;99403.28;;;10.30;100.00
29839;BME280;18669;53.356;-1.464;2022-10-16T04:39:16;99412.06;;;10.29;100.00
29839;BME280;18669;53.356;-1.464;2022-10-16T04:41:43;99418.44;;;10.23;100.00
29839;BME280;18669;53.356;-1.464;2022-10-16T04:44:08;99427.41;;;10.18;100.00
29839;BME280;18669;53.356;-1.464;2022-10-16T04:46:34;99431.97;;;10.12;100.00
29839;BME280;18669;53.356;-1.464;2022-10-16T04:49:00;99435.59;;;10.10;100.00
29839;BME280;18669;53.356;-1.464;2022-10-16T04:51:26;99436.53;;;10.07;100.00
29839;BME280;18669;53.356;-1.464;2022-10-16T04:53:53;99445.41;;;10.05;100.00
29839;BME280;18669;53.356;-1.464;2022-10-16T04:56:20;99443.69;;;10.04;100.00
29839;BME280;18669;53.356;-1.464;2022-10-16T04:58:47;99452.59;;;9.99;100.00
29839;BME280;18669;53.356;-1.464;2022-10-16T05:01:13;99455.44;;;9.93;100.00
29839;BME280;18669;53.356;-1.464;2022-10-16T05:03:39;99466.88;;;9.92;100.00
29839;BME280;18669;53.356;-1.464;2022-10-16T05:06:06;99455.69;;;9.87;100.00
29839;BME280;18669;53.356;-1.464;2022-10-16T05:08:32;99461.06;;;9.84;100.00
29839;BME280;18669;53.356;-1.464;2022-10-16T05:10:58;99475.16;;;9.81;100.00
29839;BME280;18669;53.356;-1.464;2022-10-16T05:13:24;99472.59;;;9.80;100.00
29839;BME280;18669;53.356;-1.464;2022-10-16T05:15:50;99485.75;;;9.78;100.00
29839;BME280;18669;53.356;-1.464;2022-10-16T05:18:17;99489.16;;;9.82;100.00
29839;BME280;18669;53.356;-1.464;2022-10-16T05:20:43;99485.72;;;9.80;100.00
29839;BME280;18669;53.356;-1.464;2022-10-16T05:23:09;99500.81;;;9.73;100.00
29839;BME280;18669;53.356;-1.464;2022-10-16T05:25:38;99504.25;;;9.75;100.00
29839;BME280;18669;53.356;-1.464;2022-10-16T05:28:04;99512.13;;;9.75;100.00
29839;BME280;18669;53.356;-1.464;2022-10-16T05:30:30;99515.66;;;9.74;100.00
29839;BME280;18669;53.356;-1.464;2022-10-16T05:32:56;99522.00;;;9.68;100.00
29839;BME280;18669;53.356;-1.464;2022-10-16T05:35:21;99530.91;;;9.64;100.00
29839;BME280;18669;53.356;-1.464;2022-10-16T05:37:48;99537.03;;;9.65;100.00
29839;BME280;18669;53.356;-1.464;2022-10-16T05:40:14;99534.53;;;9.60;100.00
29839;BME280;18669;53.356;-1.464;2022-10-16T05:42:40;99535.63;;;9.54;100.00
29839;BME280;18669;53.356;-1.464;2022-10-16T05:45:06;99551.56;;;9.48;100.00
29839;BME280;18669;53.356;-1.464;2022-10-16T05:47:32;99546.47;;;9.44;100.00
29839;BME280;18669;53.356;-1.464;2022-10-16T05:49:58;99554.28;;;9.45;100.00
29839;BME280;18669;53.356;-1.464;2022-10-16T05:52:24;99551.88;;;9.39;100.00
29839;BME280;18669;53.356;-1.464;2022-10-16T05:54:50;99550.31;;;9.33;100.00
29839;BME280;18669;53.356;-1.464;2022-10-16T05:57:16;99557.44;;;9.30;100.00
29839;BME280;18669;53.356;-1.464;2022-10-16T05:59:42;99564.53;;;9.26;100.00
29839;BME280;18669;53.356;-1.464;2022-10-16T06:02:11;99567.25;;;9.23;100.00
29839;BME280;18669;53.356;-1.464;2022-10-16T06:04:38;99576.91;;;9.22;100.00
29839;BME280;18669;53.356;-1.464;2022-10-16T06:07:04;99583.16;;;9.18;100.00
29839;BME280;18669;53.356;-1.464;2022-10-16T06:09:30;99582.34;;;9.16;100.00
29839;BME280;18669;53.356;-1.464;2022-10-16T06:11:56;99585.88;;;9.15;100.00
29839;BME280;18669;53.356;-1.464;2022-10-16T06:14:22;99583.41;;;9.10;100.00
29839;BME280;18669;53.356;-1.464;2022-10-16T06:16:48;99580.88;;;9.07;100.00
29839;BME280;18669;53.356;-1.464;2022-10-16T06:19:14;99587.84;;;9.08;100.00
29839;BME280;18669;53.356;-1.464;2022-10-16T06:21:41;99586.25;;;9.03;100.00
29839;BME280;18669;53.356;-1.464;2022-10-16T06:24:07;99601.19;;;9.01;100.00
29839;BME280;18669;53.356;-1.464;2022-10-16T06:26:33;99603.88;;;8.99;100.00
29839;BME280;18669;53.356;-1.464;2022-10-16T06:28:59;99603.06;;;8.97;100.00
29839;BME280;18669;53.356;-1.464;2022-10-16T06:31:25;99596.97;;;8.97;100.00
29839;BME280;18669;53.356;-1.464;2022-10-16T06:33:53;99615.31;;;8.97;100.00
29839;BME280;18669;53.356;-1.464;2022-10-16T06:36:19;99622.38;;;8.94;100.00
29839;BME280;18669;53.356;-1.464;2022-10-16T06:38:45;99624.13;;;8.94;100.00
29839;BME280;18669;53.356;-1.464;2022-10-16T06:41:13;99628.66;;;8.89;100.00
29839;BME280;18669;53.356;-1.464;2022-10-16T06:43:39;99641.81;;;8.87;100.00
29839;BME280;18669;53.356;-1.464;2022-10-16T06:46:05;99645.44;;;8.83;100.00
29839;BME280;18669;53.356;-1.464;2022-10-16T06:48:33;99650.69;;;8.83;100.00
29839;BME280;18669;53.356;-1.464;2022-10-16T06:50:59;99652.50;;;8.81;100.00
29839;BME280;18669;53.356;-1.464;2022-10-16T06:53:32;99655.53;;;8.65;100.00
29839;BME280;18669;53.356;-1.464;2022-10-16T06:55:58;99660.09;;;8.59;100.00
29839;BME280;18669;53.356;-1.464;2022-10-16T06:58:31;99661.91;;;8.57;100.00
29839;BME280;18669;53.356;-1.464;2022-10-16T07:00:58;99666.31;;;8.56;100.00
29839;BME280;18669;53.356;-1.464;2022-10-16T07:03:23;99666.41;;;8.53;100.00
29839;BME280;18669;53.356;-1.464;2022-10-16T07:06:22;99684.03;;;8.46;100.00
29839;BME280;18669;53.356;-1.464;2022-10-16T07:08:48;99674.59;;;8.39;100.00
29839;BME280;18669;53.356;-1.464;2022-10-16T07:11:20;99689.19;;;8.49;100.00
29839;BME280;18669;53.356;-1.464;2022-10-16T07:13:48;99687.63;;;8.42;100.00
29839;BME280;18669;53.356;-1.464;2022-10-16T07:16:17;99706.75;;;8.46;100.00
29839;BME280;18669;53.356;-1.464;2022-10-16T07:18:44;99696.34;;;8.43;100.00
29839;BME280;18669;53.356;-1.464;2022-10-16T07:21:14;99705.81;;;8.48;100.00
29839;BME280;18669;53.356;-1.464;2022-10-16T07:23:41;99715.50;;;8.46;100.00
29839;BME280;18669;53.356;-1.464;2022-10-16T07:26:08;99717.22;;;8.47;100.00
29839;BME280;18669;53.356;-1.464;2022-10-16T07:28:34;99716.34;;;8.47;100.00
29839;BME280;18669;53.356;-1.464;2022-10-16T07:31:03;99717.09;;;8.52;100.00
29839;BME280;18669;53.356;-1.464;2022-10-16T07:33:31;99722.28;;;8.55;100.00
29839;BME280;18669;53.356;-1.464;2022-10-16T07:35:57;99730.22;;;8.50;100.00
29839;BME280;18669;53.356;-1.464;2022-10-16T07:38:23;99730.75;;;8.65;100.00
29839;BME280;18669;53.356;-1.464;2022-10-16T07:41:05;99735.13;;;8.64;100.00
29839;BME280;18669;53.356;-1.464;2022-10-16T07:43:32;99737.03;;;8.59;100.00
29839;BME280;18669;53.356;-1.464;2022-10-16T07:45:59;99745.72;;;8.60;100.00
29839;BME280;18669;53.356;-1.464;2022-10-16T07:48:31;99745.44;;;8.71;100.00
29839;BME280;18669;53.356;-1.464;2022-10-16T07:51:04;99743.72;;;8.70;100.00
29839;BME280;18669;53.356;-1.464;2022-10-16T07:53:31;99760.31;;;8.70;100.00
29839;BME280;18669;53.356;-1.464;2022-10-16T07:56:02;99762.72;;;8.78;100.00
29839;BME280;18669;53.356;-1.464;2022-10-16T07:58:29;99770.50;;;8.81;100.00
29839;BME280;18669;53.356;-1.464;2022-10-16T08:00:56;99779.06;;;8.88;100.00
29839;BME280;18669;53.356;-1.464;2022-10-16T08:03:23;99782.44;;;8.93;100.00
29839;BME280;18669;53.356;-1.464;2022-10-16T08:05:50;99781.53;;;8.94;100.00
29839;BME280;18669;53.356;-1.464;2022-10-16T08:08:17;99793.63;;;9.00;100.00
29839;BME280;18669;53.356;-1.464;2022-10-16T08:10:44;99798.69;;;9.06;100.00
29839;BME280;18669;53.356;-1.464;2022-10-16T08:13:11;99803.91;;;9.07;100.00
29839;BME280;18669;53.356;-1.464;2022-10-16T08:15:38;99814.25;;;9.14;100.00
29839;BME280;18669;53.356;-1.464;2022-10-16T08:18:05;99820.00;;;9.27;100.00
29839;BME280;18669;53.356;-1.464;2022-10-16T08:20:32;99825.25;;;9.27;100.00
29839;BME280;18669;53.356;-1.464;2022-10-16T08:22:59;99829.31;;;9.37;100.00
29839;BME280;18669;53.356;-1.464;2022-10-16T08:25:26;99825.66;;;9.43;100.00
29839;BME280;18669;53.356;-1.464;2022-10-16T08:27:52;99824.59;;;9.50;100.00
29839;BME280;18669;53.356;-1.464;2022-10-16T08:30:19;99829.88;;;9.78;100.00
29839;BME280;18669;53.356;-1.464;2022-10-16T08:32:46;99832.78;;;10.26;100.00
29839;BME280;18669;53.356;-1.464;2022-10-16T08:35:13;99841.25;;;10.63;100.00
29839;BME280;18669;53.356;-1.464;2022-10-16T08:37:39;99834.09;;;11.18;100.00
29839;BME280;18669;53.356;-1.464;2022-10-16T08:40:06;99843.88;;;11.86;100.00
29839;BME280;18669;53.356;-1.464;2022-10-16T08:42:42;99854.09;;;12.40;100.00
29839;BME280;18669;53.356;-1.464;2022-10-16T08:45:32;99865.94;;;12.73;100.00
29839;BME280;18669;53.356;-1.464;2022-10-16T08:48:35;99868.31;;;12.58;100.00
29839;BME280;18669;53.356;-1.464;2022-10-16T08:50:53;99875.13;;;12.64;100.00
29839;BME280;18669;53.356;-1.464;2022-10-16T08:53:36;99883.53;;;13.36;100.00
29839;BME280;18669;53.356;-1.464;2022-10-16T08:56:05;99882.66;;;14.13;100.00
29839;BME280;18669;53.356;-1.464;2022-10-16T08:58:31;99888.41;;;15.30;100.00
29839;BME280;18669;53.356;-1.464;2022-10-16T09:01:03;99894.94;;;16.24;91.01
29839;BME280;18669;53.356;-1.464;2022-10-16T09:08:46;99910.44;;;17.54;71.74
29839;BME280;18669;53.356;-1.464;2022-10-16T09:11:29;99908.13;;;17.33;67.30
29839;BME280;18669;53.356;-1.464;2022-10-16T09:16:35;99921.09;;;16.62;69.53
29839;BME280;18669;53.356;-1.464;2022-10-16T09:19:18;99921.06;;;15.48;75.92
29839;BME280;18669;53.356;-1.464;2022-10-16T09:21:48;99917.34;;;14.82;82.28
29839;BME280;18669;53.356;-1.464;2022-10-16T09:24:17;99937.41;;;14.50;87.72
29839;BME280;18669;53.356;-1.464;2022-10-16T09:26:45;99935.78;;;14.47;90.94
29839;BME280;18669;53.356;-1.464;2022-10-16T09:29:15;99937.13;;;14.37;92.19
29839;BME280;18669;53.356;-1.464;2022-10-16T09:31:42;99942.28;;;14.21;91.47
29839;BME280;18669;53.356;-1.464;2022-10-16T09:34:33;99945.50;;;14.66;96.33
29839;BME280;18669;53.356;-1.464;2022-10-16T09:37:03;99954.06;;;14.71;92.43
29839;BME280;18669;53.356;-1.464;2022-10-16T09:39:47;99948.97;;;14.85;89.46
29839;BME280;18669;53.356;-1.464;2022-10-16T09:42:34;99940.63;;;14.93;90.96
29839;BME280;18669;53.356;-1.464;2022-10-16T09:45:01;99949.94;;;14.46;86.67
29839;BME280;18669;53.356;-1.464;2022-10-16T09:47:29;99959.03;;;14.21;91.95
29839;BME280;18669;53.356;-1.464;2022-10-16T09:49:59;99961.41;;;14.08;86.71
29839;BME280;18669;53.356;-1.464;2022-10-16T09:52:28;99965.03;;;14.25;88.04
29839;BME280;18669;53.356;-1.464;2022-10-16T09:54:57;99969.19;;;14.30;87.22
29839;BME280;18669;53.356;-1.464;2022-10-16T09:57:24;99971.53;;;14.37;88.54
29839;BME280;18669;53.356;-1.464;2022-10-16T09:59:56;99978.69;;;14.15;83.97
29839;BME280;18669;53.356;-1.464;2022-10-16T10:02:30;99982.81;;;13.83;86.59
29839;BME280;18669;53.356;-1.464;2022-10-16T10:04:57;99987.31;;;13.60;87.60
29839;BME280;18669;53.356;-1.464;2022-10-16T10:07:30;99989.94;;;13.39;91.32
29839;BME280;18669;53.356;-1.464;2022-10-16T10:10:01;99993.41;;;13.19;95.84
29839;BME280;18669;53.356;-1.464;2022-10-16T10:12:29;99994.47;;;12.93;94.40
29839;BME280;18669;53.356;-1.464;2022-10-16T10:15:04;99992.28;;;12.82;98.21
29839;BME280;18669;53.356;-1.464;2022-10-16T10:17:32;99993.31;;;12.56;97.17
29839;BME280;18669;53.356;-1.464;2022-10-16T10:19:59;99990.38;;;12.63;97.01
29839;BME280;18669;53.356;-1.464;2022-10-16T10:22:30;99985.69;;;12.48;96.55
29839;BME280;18669;53.356;-1.464;2022-10-16T10:38:16;99988.59;;;12.64;94.29
29839;BME280;18669;53.356;-1.464;2022-10-16T10:46:01;99998.13;;;12.90;86.20
29839;BME280;18669;53.356;-1.464;2022-10-16T10:51:53;100018.66;;;13.04;82.88
29839;BME280;18669;53.356;-1.464;2022-10-16T10:54:34;100028.19;;;13.08;80.86
29839;BME280;18669;53.356;-1.464;2022-10-16T10:57:30;100033.03;;;13.19;79.18
29839;BME280;18669;53.356;-1.464;2022-10-16T11:06:03;100045.28;;;13.22;76.72
29839;BME280;18669;53.356;-1.464;2022-10-16T11:08:39;100041.56;;;13.26;76.34
29839;BME280;18669;53.356;-1.464;2022-10-16T11:11:13;100046.06;;;13.24;76.12
29839;BME280;18669;53.356;-1.464;2022-10-16T11:14:06;100049.59;;;13.45;73.40
29839;BME280;18669;53.356;-1.464;2022-10-16T11:16:43;100041.69;;;13.45;71.68
29839;BME280;18669;53.356;-1.464;2022-10-16T11:22:02;100034.66;;;13.44;70.25
29839;BME280;18669;53.356;-1.464;2022-10-16T11:24:39;100040.69;;;13.68;71.50
29839;BME280;18669;53.356;-1.464;2022-10-16T11:27:09;100041.91;;;13.82;67.62
29839;BME280;18669;53.356;-1.464;2022-10-16T11:29:57;100030.94;;;13.91;66.60
29839;BME280;18669;53.356;-1.464;2022-10-16T11:32:32;100038.56;;;13.97;64.93
29839;BME280;18669;53.356;-1.464;2022-10-16T11:35:08;100040.88;;;14.05;62.61
29839;BME280;18669;53.356;-1.464;2022-10-16T11:37:42;100051.75;;;13.99;63.72
29839;BME280;18669;53.356;-1.464;2022-10-16T11:40:32;100046.63;;;14.15;63.41
29839;BME280;18669;53.356;-1.464;2022-10-16T11:43:14;100047.19;;;14.22;64.81
29839;BME280;18669;53.356;-1.464;2022-10-16T11:45:46;100040.34;;;14.56;61.34
29839;BME280;18669;53.356;-1.464;2022-10-16T11:48:31;100047.44;;;14.94;59.25
29839;BME280;18669;53.356;-1.464;2022-10-16T11:51:16;100043.91;;;14.75;59.97
29839;BME280;18669;53.356;-1.464;2022-10-16T11:56:37;100043.59;;;14.62;65.06
29839;BME280;18669;53.356;-1.464;2022-10-16T11:59:28;100047.50;;;14.54;61.89
29839;BME280;18669;53.356;-1.464;2022-10-16T12:07:39;100037.91;;;14.32;60.19
29839;BME280;18669;53.356;-1.464;2022-10-16T12:10:23;100032.22;;;14.41;57.13
29839;BME280;18669;53.356;-1.464;2022-10-16T12:12:50;100032.63;;;14.32;57.50
29839;BME280;18669;53.356;-1.464;2022-10-16T12:15:28;100029.06;;;14.52;59.24
29839;BME280;18669;53.356;-1.464;2022-10-16T12:17:55;100032.06;;;14.44;57.39
29839;BME280;18669;53.356;-1.464;2022-10-16T12:20:31;100046.81;;;14.69;56.35
29839;BME280;18669;53.356;-1.464;2022-10-16T12:22:59;100044.69;;;14.77;54.36
29839;BME280;18669;53.356;-1.464;2022-10-16T12:25:27;100046.84;;;14.68;55.81
29839;BME280;18669;53.356;-1.464;2022-10-16T12:30:27;100054.47;;;14.75;52.27
29839;BME280;18669;53.356;-1.464;2022-10-16T12:33:00;100061.22;;;14.83;54.69
29839;BME280;18669;53.356;-1.464;2022-10-16T12:35:33;100067.84;;;14.91;54.65
29839;BME280;18669;53.356;-1.464;2022-10-16T12:38:06;100060.56;;;14.97;54.26
29839;BME280;18669;53.356;-1.464;2022-10-16T12:40:35;100061.59;;;15.12;54.64
29839;BME280;18669;53.356;-1.464;2022-10-16T12:46:02;100058.25;;;15.43;52.17
29839;BME280;18669;53.356;-1.464;2022-10-16T12:48:29;100061.25;;;15.55;52.43
29839;BME280;18669;53.356;-1.464;2022-10-16T13:18:35;100085.72;;;15.77;53.54
29839;BME280;18669;53.356;-1.464;2022-10-16T13:21:07;100078.56;;;15.62;53.26
29839;BME280;18669;53.356;-1.464;2022-10-16T13:23:58;100076.28;;;15.72;52.64
29839;BME280;18669;53.356;-1.464;2022-10-16T13:26:41;100076.75;;;15.62;53.34
29839;BME280;18669;53.356;-1.464;2022-10-16T13:29:09;100068.03;;;15.43;53.17
29839;BME280;18669;53.356;-1.464;2022-10-16T13:31:38;100066.94;;;15.47;53.13
29839;BME280;18669;53.356;-1.464;2022-10-16T13:34:05;100075.03;;;15.44;53.51
29839;BME280;18669;53.356;-1.464;2022-10-16T13:36:44;100080.09;;;15.48;53.31
29839;BME280;18669;53.356;-1.464;2022-10-16T13:39:12;100069.78;;;15.25;55.22
29839;BME280;18669;53.356;-1.464;2022-10-16T13:41:38;100068.88;;;15.26;53.58
29839;BME280;18669;53.356;-1.464;2022-10-16T13:44:07;100069.94;;;15.21;53.67
29839;BME280;18669;53.356;-1.464;2022-10-16T13:46:37;100081.34;;;15.24;54.09
29839;BME280;18669;53.356;-1.464;2022-10-16T13:49:05;100070.88;;;15.38;53.65
29839;BME280;18669;53.356;-1.464;2022-10-16T13:51:37;100060.91;;;15.26;53.15
29839;BME280;18669;53.356;-1.464;2022-10-16T13:54:03;100066.63;;;15.35;53.31
29839;BME280;18669;53.356;-1.464;2022-10-16T13:56:32;100066.78;;;15.50;54.12
29839;BME280;18669;53.356;-1.464;2022-10-16T13:59:06;100066.38;;;15.75;53.24
29839;BME280;18669;53.356;-1.464;2022-10-16T14:01:41;100071.56;;;15.96;53.97
29839;BME280;18669;53.356;-1.464;2022-10-16T14:04:11;100072.50;;;15.95;54.21
29839;BME280;18669;53.356;-1.464;2022-10-16T14:06:42;100079.47;;;16.14;54.69
29839;BME280;18669;53.356;-1.464;2022-10-16T14:11:47;100077.41;;;16.36;55.12
29839;BME280;18669;53.356;-1.464;2022-10-16T14:14:15;100082.44;;;16.07;54.77
29839;BME280;18669;53.356;-1.464;2022-10-16T14:16:42;100069.22;;;15.90;53.78
29839;BME280;18669;53.356;-1.464;2022-10-16T14:19:24;100068.59;;;16.02;53.73
29839;BME280;18669;53.356;-1.464;2022-10-16T14:21:52;100074.91;;;15.82;53.97
29839;BME280;18669;53.356;-1.464;2022-10-16T14:24:27;100085.50;;;16.00;54.12
29839;BME280;18669;53.356;-1.464;2022-10-16T14:26:58;100080.03;;;16.03;55.28
29839;BME280;18669;53.356;-1.464;2022-10-16T14:29:25;100083.00;;;16.14;55.78
29839;BME280;18669;53.356;-1.464;2022-10-16T14:32:01;100086.69;;;16.28;55.20
29839;BME280;18669;53.356;-1.464;2022-10-16T14:34:38;100086.63;;;16.29;55.20